WIDD/BTH METAR and TAF weather

Enter ICAO airport designator
Station Type Date Time Source
WIDD METAR 2019/10/23 07:00 UTC NOAA

WIDD 230700Z 17005KT 9999 SCT014 32/24 Q1008


Station Type Date Time Source
WIDD Decoded METAR 2019/10/23 07:00 UTC NOAA

Station name not available
Oct 23, 2019 - 03:00 AM EDT / 2019.10.23 0700 UTC
Wind: from the S (170 degrees) at 6 MPH (5 KT):0
Visibility: greater than 7 mile(s):0
Sky conditions: partly cloudy
Temperature: 89 F (32 C)
Heat index: 98.4 F (36.9 C):1
Dew Point: 75 F (24 C)
Relative Humidity: 62%
Pressure (altimeter): 29.77 in. Hg (1008 hPa)
ob: WIDD 230700Z 17005KT 9999 SCT014 32/24 Q1008
cycle: 7

Station Type Date Time Source
WIDD TAF 2019/10/23 06:00 UTC NOAA

TAF WIDD 230500Z 2306/2406 16005KT 9000 SCT014=

Example: see airport list